sensor_id;sensor_type;location;lat;lon;timestamp;P1;durP1;ratioP1;P2;durP2;ratioP2
27925;SDS011;15267;47.838;12.128;2022-11-23T00:03:50;4.63;;;3.85;;
27925;SDS011;15267;47.838;12.128;2022-11-23T00:06:17;5.13;;;4.30;;
27925;SDS011;15267;47.838;12.128;2022-11-23T00:08:43;5.38;;;4.53;;
27925;SDS011;15267;47.838;12.128;2022-11-23T00:11:10;6.18;;;4.82;;
27925;SDS011;15267;47.838;12.128;2022-11-23T00:13:36;6.97;;;4.50;;
27925;SDS011;15267;47.838;12.128;2022-11-23T00:16:05;5.68;;;4.70;;
27925;SDS011;15267;47.838;12.128;2022-11-23T00:18:31;6.78;;;4.30;;
27925;SDS011;15267;47.838;12.128;2022-11-23T00:20:57;6.50;;;4.95;;
27925;SDS011;15267;47.838;12.128;2022-11-23T00:23:23;6.45;;;4.97;;
27925;SDS011;15267;47.838;12.128;2022-11-23T00:25:49;5.38;;;4.80;;
27925;SDS011;15267;47.838;12.128;2022-11-23T00:28:15;6.43;;;4.97;;
27925;SDS011;15267;47.838;12.128;2022-11-23T00:30:41;5.85;;;4.82;;
27925;SDS011;15267;47.838;12.128;2022-11-23T00:33:07;4.88;;;4.38;;
27925;SDS011;15267;47.838;12.128;2022-11-23T00:35:33;4.90;;;4.20;;
27925;SDS011;15267;47.838;12.128;2022-11-23T00:37:59;5.60;;;5.05;;
27925;SDS011;15267;47.838;12.128;2022-11-23T00:40:25;6.10;;;4.78;;
27925;SDS011;15267;47.838;12.128;2022-11-23T00:42:51;5.75;;;4.90;;
27925;SDS011;15267;47.838;12.128;2022-11-23T00:45:17;6.20;;;5.20;;
27925;SDS011;15267;47.838;12.128;2022-11-23T00:47:43;6.05;;;5.40;;
27925;SDS011;15267;47.838;12.128;2022-11-23T00:50:09;7.72;;;4.97;;
27925;SDS011;15267;47.838;12.128;2022-11-23T00:52:35;7.25;;;5.65;;
27925;SDS011;15267;47.838;12.128;2022-11-23T00:55:01;6.38;;;5.13;;
27925;SDS011;15267;47.838;12.128;2022-11-23T00:57:26;6.22;;;5.05;;
27925;SDS011;15267;47.838;12.128;2022-11-23T00:59:52;7.53;;;5.80;;
27925;SDS011;15267;47.838;12.128;2022-11-23T01:02:18;10.77;;;5.60;;
27925;SDS011;15267;47.838;12.128;2022-11-23T01:04:44;5.70;;;5.10;;
27925;SDS011;15267;47.838;12.128;2022-11-23T01:07:10;6.53;;;5.10;;
27925;SDS011;15267;47.838;12.128;2022-11-23T01:09:36;7.78;;;5.45;;
27925;SDS011;15267;47.838;12.128;2022-11-23T01:12:02;7.35;;;5.22;;
27925;SDS011;15267;47.838;12.128;2022-11-23T01:14:28;6.32;;;5.35;;
27925;SDS011;15267;47.838;12.128;2022-11-23T01:16:54;6.00;;;5.38;;
27925;SDS011;15267;47.838;12.128;2022-11-23T01:19:20;6.30;;;5.25;;
27925;SDS011;15267;47.838;12.128;2022-11-23T01:21:46;8.23;;;5.93;;
27925;SDS011;15267;47.838;12.128;2022-11-23T01:24:13;7.25;;;5.55;;
27925;SDS011;15267;47.838;12.128;2022-11-23T01:26:40;7.03;;;5.65;;
27925;SDS011;15267;47.838;12.128;2022-11-23T01:29:06;8.65;;;5.75;;
27925;SDS011;15267;47.838;12.128;2022-11-23T01:31:32;8.02;;;6.18;;
27925;SDS011;15267;47.838;12.128;2022-11-23T01:33:58;7.15;;;5.78;;
27925;SDS011;15267;47.838;12.128;2022-11-23T01:36:27;7.03;;;5.63;;
27925;SDS011;15267;47.838;12.128;2022-11-23T01:38:53;6.18;;;5.40;;
27925;SDS011;15267;47.838;12.128;2022-11-23T01:41:21;6.93;;;5.88;;
27925;SDS011;15267;47.838;12.128;2022-11-23T01:43:48;8.00;;;5.97;;
27925;SDS011;15267;47.838;12.128;2022-11-23T01:46:14;6.97;;;6.28;;
27925;SDS011;15267;47.838;12.128;2022-11-23T01:48:41;7.57;;;6.25;;
27925;SDS011;15267;47.838;12.128;2022-11-23T01:51:12;8.32;;;6.00;;
27925;SDS011;15267;47.838;12.128;2022-11-23T01:53:39;7.38;;;5.68;;
27925;SDS011;15267;47.838;12.128;2022-11-23T01:56:06;6.63;;;5.30;;
27925;SDS011;15267;47.838;12.128;2022-11-23T01:58:34;7.65;;;5.03;;
27925;SDS011;15267;47.838;12.128;2022-11-23T02:01:01;6.10;;;5.03;;
27925;SDS011;15267;47.838;12.128;2022-11-23T02:03:30;5.65;;;4.85;;
27925;SDS011;15267;47.838;12.128;2022-11-23T02:05:58;4.75;;;4.13;;
27925;SDS011;15267;47.838;12.128;2022-11-23T02:08:26;5.55;;;5.05;;
27925;SDS011;15267;47.838;12.128;2022-11-23T02:10:53;5.45;;;4.80;;
27925;SDS011;15267;47.838;12.128;2022-11-23T02:13:20;5.85;;;4.60;;
27925;SDS011;15267;47.838;12.128;2022-11-23T02:15:46;4.70;;;3.95;;
27925;SDS011;15267;47.838;12.128;2022-11-23T02:18:17;4.65;;;4.05;;
27925;SDS011;15267;47.838;12.128;2022-11-23T02:20:44;4.63;;;4.10;;
27925;SDS011;15267;47.838;12.128;2022-11-23T02:28:26;4.50;;;4.07;;
27925;SDS011;15267;47.838;12.128;2022-11-23T02:30:54;4.55;;;4.13;;
27925;SDS011;15267;47.838;12.128;2022-11-23T02:33:20;4.22;;;3.83;;
27925;SDS011;15267;47.838;12.128;2022-11-23T02:35:50;4.90;;;4.10;;
27925;SDS011;15267;47.838;12.128;2022-11-23T02:38:16;5.90;;;3.90;;
27925;SDS011;15267;47.838;12.128;2022-11-23T02:40:43;5.25;;;4.15;;
27925;SDS011;15267;47.838;12.128;2022-11-23T02:43:09;4.80;;;4.00;;
27925;SDS011;15267;47.838;12.128;2022-11-23T02:48:10;5.03;;;3.67;;
27925;SDS011;15267;47.838;12.128;2022-11-23T02:50:36;3.70;;;3.40;;
27925;SDS011;15267;47.838;12.128;2022-11-23T02:53:02;4.97;;;3.55;;
27925;SDS011;15267;47.838;12.128;2022-11-23T02:55:27;5.03;;;3.50;;
27925;SDS011;15267;47.838;12.128;2022-11-23T02:57:53;3.95;;;3.55;;
27925;SDS011;15267;47.838;12.128;2022-11-23T03:00:19;4.20;;;3.83;;
27925;SDS011;15267;47.838;12.128;2022-11-23T03:02:45;4.38;;;3.55;;
27925;SDS011;15267;47.838;12.128;2022-11-23T03:05:11;5.25;;;4.07;;
27925;SDS011;15267;47.838;12.128;2022-11-23T03:07:37;4.57;;;4.18;;
27925;SDS011;15267;47.838;12.128;2022-11-23T03:10:03;4.53;;;3.47;;
27925;SDS011;15267;47.838;12.128;2022-11-23T03:12:30;3.60;;;3.15;;
27925;SDS011;15267;47.838;12.128;2022-11-23T03:14:55;4.18;;;3.38;;
27925;SDS011;15267;47.838;12.128;2022-11-23T03:17:21;4.78;;;3.80;;
27925;SDS011;15267;47.838;12.128;2022-11-23T03:19:47;4.47;;;3.67;;
27925;SDS011;15267;47.838;12.128;2022-11-23T03:22:13;4.70;;;4.05;;
27925;SDS011;15267;47.838;12.128;2022-11-23T03:24:39;5.60;;;3.97;;
27925;SDS011;15267;47.838;12.128;2022-11-23T03:27:05;4.85;;;4.05;;
27925;SDS011;15267;47.838;12.128;2022-11-23T03:29:31;6.97;;;3.78;;
27925;SDS011;15267;47.838;12.128;2022-11-23T03:31:57;4.43;;;3.70;;
27925;SDS011;15267;47.838;12.128;2022-11-23T03:34:23;4.00;;;3.60;;
27925;SDS011;15267;47.838;12.128;2022-11-23T03:36:49;4.88;;;3.55;;
27925;SDS011;15267;47.838;12.128;2022-11-23T03:39:15;4.18;;;3.60;;
27925;SDS011;15267;47.838;12.128;2022-11-23T03:41:41;3.67;;;3.30;;
27925;SDS011;15267;47.838;12.128;2022-11-23T03:44:07;5.65;;;3.60;;
27925;SDS011;15267;47.838;12.128;2022-11-23T03:46:33;4.28;;;3.60;;
27925;SDS011;15267;47.838;12.128;2022-11-23T03:48:59;3.63;;;3.30;;
27925;SDS011;15267;47.838;12.128;2022-11-23T03:51:25;4.40;;;3.92;;
27925;SDS011;15267;47.838;12.128;2022-11-23T03:53:51;3.85;;;3.45;;
27925;SDS011;15267;47.838;12.128;2022-11-23T03:56:17;3.78;;;3.45;;
27925;SDS011;15267;47.838;12.128;2022-11-23T03:58:44;5.28;;;3.65;;
27925;SDS011;15267;47.838;12.128;2022-11-23T04:01:10;5.22;;;3.40;;
27925;SDS011;15267;47.838;12.128;2022-11-23T04:03:36;4.25;;;3.63;;
27925;SDS011;15267;47.838;12.128;2022-11-23T04:06:02;3.70;;;3.30;;
27925;SDS011;15267;47.838;12.128;2022-11-23T04:08:28;3.90;;;3.60;;
27925;SDS011;15267;47.838;12.128;2022-11-23T04:10:57;5.20;;;3.58;;
27925;SDS011;15267;47.838;12.128;2022-11-23T04:13:24;4.25;;;3.85;;
27925;SDS011;15267;47.838;12.128;2022-11-23T04:15:50;4.93;;;4.45;;
27925;SDS011;15267;47.838;12.128;2022-11-23T04:18:16;4.97;;;4.40;;
27925;SDS011;15267;47.838;12.128;2022-11-23T04:20:42;6.00;;;4.88;;
27925;SDS011;15267;47.838;12.128;2022-11-23T04:23:08;5.47;;;4.63;;
27925;SDS011;15267;47.838;12.128;2022-11-23T04:25:34;7.60;;;4.55;;
27925;SDS011;15267;47.838;12.128;2022-11-23T04:28:00;6.45;;;5.00;;
27925;SDS011;15267;47.838;12.128;2022-11-23T04:30:26;7.53;;;5.15;;
27925;SDS011;15267;47.838;12.128;2022-11-23T04:32:52;6.35;;;4.97;;
27925;SDS011;15267;47.838;12.128;2022-11-23T04:35:18;6.75;;;5.15;;
27925;SDS011;15267;47.838;12.128;2022-11-23T04:37:45;6.07;;;5.20;;
27925;SDS011;15267;47.838;12.128;2022-11-23T04:40:11;6.13;;;5.55;;
27925;SDS011;15267;47.838;12.128;2022-11-23T04:42:37;6.15;;;5.10;;
27925;SDS011;15267;47.838;12.128;2022-11-23T04:45:03;5.25;;;4.75;;
27925;SDS011;15267;47.838;12.128;2022-11-23T04:47:29;6.65;;;5.00;;
27925;SDS011;15267;47.838;12.128;2022-11-23T04:49:55;6.28;;;4.55;;
27925;SDS011;15267;47.838;12.128;2022-11-23T04:52:21;4.57;;;4.18;;
27925;SDS011;15267;47.838;12.128;2022-11-23T04:54:47;4.75;;;4.22;;
27925;SDS011;15267;47.838;12.128;2022-11-23T04:57:13;5.60;;;4.78;;
27925;SDS011;15267;47.838;12.128;2022-11-23T04:59:39;7.45;;;5.10;;
27925;SDS011;15267;47.838;12.128;2022-11-23T05:02:05;18.92;;;12.93;;
27925;SDS011;15267;47.838;12.128;2022-11-23T05:04:32;22.92;;;15.25;;
27925;SDS011;15267;47.838;12.128;2022-11-23T05:06:58;20.42;;;15.00;;
27925;SDS011;15267;47.838;12.128;2022-11-23T05:09:24;15.73;;;11.50;;
27925;SDS011;15267;47.838;12.128;2022-11-23T05:11:50;10.35;;;7.97;;
27925;SDS011;15267;47.838;12.128;2022-11-23T05:14:16;8.80;;;6.38;;
27925;SDS011;15267;47.838;12.128;2022-11-23T05:16:42;6.80;;;5.38;;
27925;SDS011;15267;47.838;12.128;2022-11-23T05:19:08;6.85;;;5.32;;
27925;SDS011;15267;47.838;12.128;2022-11-23T05:21:34;6.18;;;4.88;;
27925;SDS011;15267;47.838;12.128;2022-11-23T05:24:00;5.68;;;5.07;;
27925;SDS011;15267;47.838;12.128;2022-11-23T05:26:26;7.07;;;4.75;;
27925;SDS011;15267;47.838;12.128;2022-11-23T05:28:52;5.50;;;4.55;;
27925;SDS011;15267;47.838;12.128;2022-11-23T05:31:18;9.10;;;4.57;;
27925;SDS011;15267;47.838;12.128;2022-11-23T05:33:44;6.57;;;4.57;;
27925;SDS011;15267;47.838;12.128;2022-11-23T05:36:10;5.22;;;4.45;;
27925;SDS011;15267;47.838;12.128;2022-11-23T05:38:39;14.95;;;10.63;;
27925;SDS011;15267;47.838;12.128;2022-11-23T05:41:06;14.70;;;10.02;;
27925;SDS011;15267;47.838;12.128;2022-11-23T05:43:32;11.32;;;7.35;;
27925;SDS011;15267;47.838;12.128;2022-11-23T05:45:58;6.38;;;5.03;;
27925;SDS011;15267;47.838;12.128;2022-11-23T05:48:24;7.05;;;5.38;;
27925;SDS011;15267;47.838;12.128;2022-11-23T05:50:50;6.28;;;5.30;;
27925;SDS011;15267;47.838;12.128;2022-11-23T05:53:16;7.43;;;5.25;;
27925;SDS011;15267;47.838;12.128;2022-11-23T05:55:43;5.97;;;5.15;;
27925;SDS011;15267;47.838;12.128;2022-11-23T05:58:09;6.05;;;5.07;;
27925;SDS011;15267;47.838;12.128;2022-11-23T06:00:35;7.45;;;5.88;;
27925;SDS011;15267;47.838;12.128;2022-11-23T06:03:02;8.68;;;6.82;;
27925;SDS011;15267;47.838;12.128;2022-11-23T06:05:28;10.05;;;8.20;;
27925;SDS011;15267;47.838;12.128;2022-11-23T06:07:54;13.85;;;10.10;;
27925;SDS011;15267;47.838;12.128;2022-11-23T06:10:20;12.07;;;9.45;;
27925;SDS011;15267;47.838;12.128;2022-11-23T06:12:46;12.52;;;9.93;;
27925;SDS011;15267;47.838;12.128;2022-11-23T06:15:14;16.90;;;13.55;;
27925;SDS011;15267;47.838;12.128;2022-11-23T06:17:40;18.55;;;15.25;;
27925;SDS011;15267;47.838;12.128;2022-11-23T06:20:06;17.70;;;13.80;;
27925;SDS011;15267;47.838;12.128;2022-11-23T06:22:32;14.88;;;11.77;;
27925;SDS011;15267;47.838;12.128;2022-11-23T06:24:58;13.23;;;10.80;;
27925;SDS011;15267;47.838;12.128;2022-11-23T06:27:24;14.80;;;12.63;;
27925;SDS011;15267;47.838;12.128;2022-11-23T06:29:50;14.35;;;10.43;;
27925;SDS011;15267;47.838;12.128;2022-11-23T06:32:16;11.63;;;8.18;;
27925;SDS011;15267;47.838;12.128;2022-11-23T06:34:42;7.93;;;7.10;;
27925;SDS011;15267;47.838;12.128;2022-11-23T06:37:08;10.30;;;7.10;;
27925;SDS011;15267;47.838;12.128;2022-11-23T06:39:34;7.93;;;7.07;;
27925;SDS011;15267;47.838;12.128;2022-11-23T06:42:00;8.73;;;6.55;;
27925;SDS011;15267;47.838;12.128;2022-11-23T06:44:26;7.20;;;6.32;;
27925;SDS011;15267;47.838;12.128;2022-11-23T06:46:52;8.43;;;7.18;;
27925;SDS011;15267;47.838;12.128;2022-11-23T06:49:18;7.43;;;6.60;;
27925;SDS011;15267;47.838;12.128;2022-11-23T06:51:45;7.90;;;6.43;;
27925;SDS011;15267;47.838;12.128;2022-11-23T06:54:11;8.63;;;6.95;;
27925;SDS011;15267;47.838;12.128;2022-11-23T06:56:37;10.50;;;8.23;;
27925;SDS011;15267;47.838;12.128;2022-11-23T06:59:03;9.90;;;8.27;;
27925;SDS011;15267;47.838;12.128;2022-11-23T07:01:29;9.32;;;7.63;;
27925;SDS011;15267;47.838;12.128;2022-11-23T07:03:56;8.18;;;6.57;;
27925;SDS011;15267;47.838;12.128;2022-11-23T07:06:22;11.75;;;2.92;;
27925;SDS011;15267;47.838;12.128;2022-11-23T07:08:48;7.72;;;3.97;;
27925;SDS011;15267;47.838;12.128;2022-11-23T07:11:14;8.63;;;5.47;;
27925;SDS011;15267;47.838;12.128;2022-11-23T07:13:40;8.55;;;6.85;;
27925;SDS011;15267;47.838;12.128;2022-11-23T07:16:06;13.88;;;7.30;;
27925;SDS011;15267;47.838;12.128;2022-11-23T07:18:32;15.10;;;7.07;;
27925;SDS011;15267;47.838;12.128;2022-11-23T07:20:58;13.63;;;7.35;;
27925;SDS011;15267;47.838;12.128;2022-11-23T07:23:25;12.18;;;7.18;;
27925;SDS011;15267;47.838;12.128;2022-11-23T07:25:51;19.52;;;7.95;;
27925;SDS011;15267;47.838;12.128;2022-11-23T07:28:17;11.27;;;7.47;;
27925;SDS011;15267;47.838;12.128;2022-11-23T07:30:43;13.55;;;6.75;;
27925;SDS011;15267;47.838;12.128;2022-11-23T07:33:10;11.82;;;7.45;;
27925;SDS011;15267;47.838;12.128;2022-11-23T07:35:37;9.95;;;7.45;;
27925;SDS011;15267;47.838;12.128;2022-11-23T07:38:03;10.70;;;6.80;;
27925;SDS011;15267;47.838;12.128;2022-11-23T07:40:31;9.48;;;7.50;;
27925;SDS011;15267;47.838;12.128;2022-11-23T07:42:58;11.30;;;6.93;;
27925;SDS011;15267;47.838;12.128;2022-11-23T07:45:24;12.02;;;8.70;;
27925;SDS011;15267;47.838;12.128;2022-11-23T07:47:56;9.82;;;8.05;;
27925;SDS011;15267;47.838;12.128;2022-11-23T07:50:22;12.85;;;8.65;;
27925;SDS011;15267;47.838;12.128;2022-11-23T07:52:48;13.32;;;9.23;;
27925;SDS011;15267;47.838;12.128;2022-11-23T07:55:14;12.50;;;9.05;;
27925;SDS011;15267;47.838;12.128;2022-11-23T07:57:40;10.80;;;9.05;;
27925;SDS011;15267;47.838;12.128;2022-11-23T08:00:06;12.38;;;9.00;;
27925;SDS011;15267;47.838;12.128;2022-11-23T08:02:32;11.95;;;9.10;;
27925;SDS011;15267;47.838;12.128;2022-11-23T08:04:58;10.40;;;8.85;;
27925;SDS011;15267;47.838;12.128;2022-11-23T08:07:24;13.20;;;9.20;;
27925;SDS011;15267;47.838;12.128;2022-11-23T08:09:50;11.07;;;9.00;;
27925;SDS011;15267;47.838;12.128;2022-11-23T08:12:16;11.00;;;8.55;;
27925;SDS011;15267;47.838;12.128;2022-11-23T08:14:42;9.75;;;8.57;;
27925;SDS011;15267;47.838;12.128;2022-11-23T08:17:08;11.15;;;8.85;;
27925;SDS011;15267;47.838;12.128;2022-11-23T08:19:34;12.60;;;10.25;;
27925;SDS011;15267;47.838;12.128;2022-11-23T08:22:00;12.48;;;9.52;;
27925;SDS011;15267;47.838;12.128;2022-11-23T08:24:26;9.55;;;8.05;;
27925;SDS011;15267;47.838;12.128;2022-11-23T08:26:52;11.30;;;8.15;;
27925;SDS011;15267;47.838;12.128;2022-11-23T08:29:18;13.35;;;8.93;;
27925;SDS011;15267;47.838;12.128;2022-11-23T08:31:44;13.52;;;9.65;;
27925;SDS011;15267;47.838;12.128;2022-11-23T08:34:10;11.00;;;8.82;;
27925;SDS011;15267;47.838;12.128;2022-11-23T08:36:37;8.50;;;7.57;;
27925;SDS011;15267;47.838;12.128;2022-11-23T08:39:03;8.43;;;7.30;;
27925;SDS011;15267;47.838;12.128;2022-11-23T08:41:29;8.93;;;7.13;;
27925;SDS011;15267;47.838;12.128;2022-11-23T08:43:55;10.55;;;7.68;;
27925;SDS011;15267;47.838;12.128;2022-11-23T08:46:21;8.13;;;7.25;;
27925;SDS011;15267;47.838;12.128;2022-11-23T08:48:47;8.75;;;6.97;;
27925;SDS011;15267;47.838;12.128;2022-11-23T08:51:13;8.40;;;7.13;;
27925;SDS011;15267;47.838;12.128;2022-11-23T08:53:39;8.05;;;6.70;;
27925;SDS011;15267;47.838;12.128;2022-11-23T08:56:05;7.97;;;7.10;;
27925;SDS011;15267;47.838;12.128;2022-11-23T08:58:32;11.48;;;7.50;;
27925;SDS011;15267;47.838;12.128;2022-11-23T09:00:58;10.52;;;7.32;;
27925;SDS011;15267;47.838;12.128;2022-11-23T09:03:24;9.35;;;7.07;;
27925;SDS011;15267;47.838;12.128;2022-11-23T09:05:50;8.45;;;7.45;;
27925;SDS011;15267;47.838;12.128;2022-11-23T09:08:17;8.32;;;7.00;;
27925;SDS011;15267;47.838;12.128;2022-11-23T09:10:43;9.45;;;6.97;;
27925;SDS011;15267;47.838;12.128;2022-11-23T09:13:09;7.47;;;6.65;;
27925;SDS011;15267;47.838;12.128;2022-11-23T09:15:35;8.73;;;7.13;;
27925;SDS011;15267;47.838;12.128;2022-11-23T09:18:01;11.25;;;7.30;;
27925;SDS011;15267;47.838;12.128;2022-11-23T09:20:27;7.95;;;6.40;;
27925;SDS011;15267;47.838;12.128;2022-11-23T09:22:54;7.93;;;6.57;;
27925;SDS011;15267;47.838;12.128;2022-11-23T09:25:21;7.28;;;6.13;;
27925;SDS011;15267;47.838;12.128;2022-11-23T09:27:47;8.20;;;6.35;;
27925;SDS011;15267;47.838;12.128;2022-11-23T09:30:13;8.48;;;6.40;;
27925;SDS011;15267;47.838;12.128;2022-11-23T09:32:40;6.55;;;5.72;;
27925;SDS011;15267;47.838;12.128;2022-11-23T09:35:06;6.90;;;5.80;;
27925;SDS011;15267;47.838;12.128;2022-11-23T09:37:32;7.28;;;6.03;;
27925;SDS011;15267;47.838;12.128;2022-11-23T09:39:58;7.63;;;6.20;;
27925;SDS011;15267;47.838;12.128;2022-11-23T09:42:29;6.95;;;6.05;;
27925;SDS011;15267;47.838;12.128;2022-11-23T09:45:15;7.32;;;6.10;;
27925;SDS011;15267;47.838;12.128;2022-11-23T09:47:55;8.43;;;6.32;;
27925;SDS011;15267;47.838;12.128;2022-11-23T09:50:32;7.90;;;6.20;;
27925;SDS011;15267;47.838;12.128;2022-11-23T09:53:03;6.15;;;5.10;;
27925;SDS011;15267;47.838;12.128;2022-11-23T09:55:36;7.93;;;5.93;;
27925;SDS011;15267;47.838;12.128;2022-11-23T09:58:04;6.93;;;5.63;;
27925;SDS011;15267;47.838;12.128;2022-11-23T10:00:37;6.85;;;5.50;;
27925;SDS011;15267;47.838;12.128;2022-11-23T10:03:04;8.10;;;5.63;;
27925;SDS011;15267;47.838;12.128;2022-11-23T10:05:32;9.55;;;6.00;;
27925;SDS011;15267;47.838;12.128;2022-11-23T10:15:27;8.35;;;5.68;;
27925;SDS011;15267;47.838;12.128;2022-11-23T10:22:58;6.18;;;5.32;;
27925;SDS011;15267;47.838;12.128;2022-11-23T10:25:24;6.18;;;5.47;;
27925;SDS011;15267;47.838;12.128;2022-11-23T10:27:53;6.85;;;5.35;;
27925;SDS011;15267;47.838;12.128;2022-11-23T10:30:20;7.53;;;4.78;;
27925;SDS011;15267;47.838;12.128;2022-11-23T10:32:50;6.85;;;5.03;;
27925;SDS011;15267;47.838;12.128;2022-11-23T10:35:26;6.63;;;5.00;;
27925;SDS011;15267;47.838;12.128;2022-11-23T10:38:15;5.82;;;4.82;;
27925;SDS011;15267;47.838;12.128;2022-11-23T10:40:42;6.38;;;5.28;;
27925;SDS011;15267;47.838;12.128;2022-11-23T10:43:13;7.72;;;5.63;;
27925;SDS011;15267;47.838;12.128;2022-11-23T10:45:40;6.93;;;5.72;;
27925;SDS011;15267;47.838;12.128;2022-11-23T10:48:06;8.38;;;5.53;;
27925;SDS011;15267;47.838;12.128;2022-11-23T10:50:33;5.78;;;4.93;;
27925;SDS011;15267;47.838;12.128;2022-11-23T10:55:32;7.00;;;5.22;;
27925;SDS011;15267;47.838;12.128;2022-11-23T10:57:59;5.72;;;4.53;;
27925;SDS011;15267;47.838;12.128;2022-11-23T11:00:26;8.48;;;5.20;;
27925;SDS011;15267;47.838;12.128;2022-11-23T11:02:56;7.28;;;5.22;;
27925;SDS011;15267;47.838;12.128;2022-11-23T11:07:58;6.60;;;3.90;;
27925;SDS011;15267;47.838;12.128;2022-11-23T11:12:57;5.88;;;3.60;;
27925;SDS011;15267;47.838;12.128;2022-11-23T11:15:23;6.00;;;4.00;;
27925;SDS011;15267;47.838;12.128;2022-11-23T11:17:56;5.18;;;3.70;;
27925;SDS011;15267;47.838;12.128;2022-11-23T11:20:33;4.18;;;3.63;;
27925;SDS011;15267;47.838;12.128;2022-11-23T11:23:00;4.13;;;3.50;;
27925;SDS011;15267;47.838;12.128;2022-11-23T11:25:31;4.47;;;3.95;;
27925;SDS011;15267;47.838;12.128;2022-11-23T11:27:58;5.38;;;4.32;;
27925;SDS011;15267;47.838;12.128;2022-11-23T11:30:26;5.63;;;4.25;;
27925;SDS011;15267;47.838;12.128;2022-11-23T11:35:27;5.88;;;5.15;;
27925;SDS011;15267;47.838;12.128;2022-11-23T11:45:47;6.40;;;5.07;;
27925;SDS011;15267;47.838;12.128;2022-11-23T11:48:21;7.03;;;5.10;;
27925;SDS011;15267;47.838;12.128;2022-11-23T11:50:55;5.70;;;4.82;;
27925;SDS011;15267;47.838;12.128;2022-11-23T11:53:23;6.10;;;5.00;;
27925;SDS011;15267;47.838;12.128;2022-11-23T11:55:54;5.05;;;4.40;;
27925;SDS011;15267;47.838;12.128;2022-11-23T11:58:22;5.65;;;4.78;;
27925;SDS011;15267;47.838;12.128;2022-11-23T12:00:49;5.55;;;4.30;;
27925;SDS011;15267;47.838;12.128;2022-11-23T12:05:58;7.07;;;4.90;;
27925;SDS011;15267;47.838;12.128;2022-11-23T12:08:32;6.35;;;4.30;;
27925;SDS011;15267;47.838;12.128;2022-11-23T12:11:00;5.35;;;4.85;;
27925;SDS011;15267;47.838;12.128;2022-11-23T12:13:29;8.05;;;6.00;;
27925;SDS011;15267;47.838;12.128;2022-11-23T12:18:32;7.57;;;5.05;;
27925;SDS011;15267;47.838;12.128;2022-11-23T12:21:04;8.35;;;5.75;;
27925;SDS011;15267;47.838;12.128;2022-11-23T12:26:25;8.50;;;5.20;;
27925;SDS011;15267;47.838;12.128;2022-11-23T12:29:37;8.82;;;5.00;;
27925;SDS011;15267;47.838;12.128;2022-11-23T12:31:50;6.50;;;4.68;;
27925;SDS011;15267;47.838;12.128;2022-11-23T12:37:24;5.53;;;4.55;;
27925;SDS011;15267;47.838;12.128;2022-11-23T12:42:35;5.95;;;5.28;;
27925;SDS011;15267;47.838;12.128;2022-11-23T12:45:27;6.20;;;4.82;;
27925;SDS011;15267;47.838;12.128;2022-11-23T12:50:46;6.55;;;4.93;;
27925;SDS011;15267;47.838;12.128;2022-11-23T12:53:38;5.63;;;5.03;;
27925;SDS011;15267;47.838;12.128;2022-11-23T12:56:11;9.80;;;5.53;;
27925;SDS011;15267;47.838;12.128;2022-11-23T12:58:38;7.90;;;5.25;;
27925;SDS011;15267;47.838;12.128;2022-11-23T13:01:10;5.13;;;4.63;;
27925;SDS011;15267;47.838;12.128;2022-11-23T13:11:34;5.82;;;4.03;;
27925;SDS011;15267;47.838;12.128;2022-11-23T13:14:07;6.25;;;4.63;;
27925;SDS011;15267;47.838;12.128;2022-11-23T13:24:00;7.35;;;3.80;;
27925;SDS011;15267;47.838;12.128;2022-11-23T13:26:27;6.38;;;4.55;;
27925;SDS011;15267;47.838;12.128;2022-11-23T13:28:54;5.07;;;4.13;;
27925;SDS011;15267;47.838;12.128;2022-11-23T13:31:26;4.72;;;4.03;;
27925;SDS011;15267;47.838;12.128;2022-11-23T13:33:53;5.30;;;4.32;;
27925;SDS011;15267;47.838;12.128;2022-11-23T13:38:58;5.93;;;4.03;;
27925;SDS011;15267;47.838;12.128;2022-11-23T13:47:01;5.60;;;4.50;;
27925;SDS011;15267;47.838;12.128;2022-11-23T13:49:28;5.97;;;4.53;;
27925;SDS011;15267;47.838;12.128;2022-11-23T13:52:05;7.85;;;4.28;;
27925;SDS011;15267;47.838;12.128;2022-11-23T13:54:32;5.22;;;4.28;;
27925;SDS011;15267;47.838;12.128;2022-11-23T13:57:00;5.70;;;4.10;;
27925;SDS011;15267;47.838;12.128;2022-11-23T13:59:28;7.60;;;4.10;;
27925;SDS011;15267;47.838;12.128;2022-11-23T14:02:20;6.00;;;4.18;;
27925;SDS011;15267;47.838;12.128;2022-11-23T14:04:47;4.78;;;3.92;;
27925;SDS011;15267;47.838;12.128;2022-11-23T14:07:21;8.55;;;3.80;;
27925;SDS011;15267;47.838;12.128;2022-11-23T14:10:05;5.57;;;4.60;;
27925;SDS011;15267;47.838;12.128;2022-11-23T14:12:45;5.63;;;4.47;;
27925;SDS011;15267;47.838;12.128;2022-11-23T14:20:29;5.28;;;4.43;;
27925;SDS011;15267;47.838;12.128;2022-11-23T14:31:19;5.70;;;4.55;;
27925;SDS011;15267;47.838;12.128;2022-11-23T14:33:51;5.90;;;4.60;;
27925;SDS011;15267;47.838;12.128;2022-11-23T14:36:21;5.05;;;4.07;;
27925;SDS011;15267;47.838;12.128;2022-11-23T14:41:22;6.40;;;4.20;;
27925;SDS011;15267;47.838;12.128;2022-11-23T14:43:49;9.10;;;5.10;;
27925;SDS011;15267;47.838;12.128;2022-11-23T14:46:19;5.13;;;4.63;;
27925;SDS011;15267;47.838;12.128;2022-11-23T14:48:47;5.40;;;4.60;;
27925;SDS011;15267;47.838;12.128;2022-11-23T14:51:21;5.80;;;4.50;;
27925;SDS011;15267;47.838;12.128;2022-11-23T14:53:48;5.32;;;4.55;;
27925;SDS011;15267;47.838;12.128;2022-11-23T14:56:24;6.15;;;4.60;;
27925;SDS011;15267;47.838;12.128;2022-11-23T14:58:58;7.40;;;4.55;;
27925;SDS011;15267;47.838;12.128;2022-11-23T15:01:26;6.40;;;4.70;;
27925;SDS011;15267;47.838;12.128;2022-11-23T15:03:55;7.18;;;4.70;;
27925;SDS011;15267;47.838;12.128;2022-11-23T15:06:23;6.38;;;3.88;;
27925;SDS011;15267;47.838;12.128;2022-11-23T15:08:59;6.18;;;4.47;;
27925;SDS011;15267;47.838;12.128;2022-11-23T15:11:28;6.78;;;4.70;;
27925;SDS011;15267;47.838;12.128;2022-11-23T15:13:55;5.25;;;4.40;;
27925;SDS011;15267;47.838;12.128;2022-11-23T15:16:27;6.72;;;4.53;;
27925;SDS011;15267;47.838;12.128;2022-11-23T15:18:54;5.63;;;4.65;;
27925;SDS011;15267;47.838;12.128;2022-11-23T15:21:20;5.38;;;4.50;;
27925;SDS011;15267;47.838;12.128;2022-11-23T15:23:47;5.85;;;4.57;;
27925;SDS011;15267;47.838;12.128;2022-11-23T15:26:16;6.72;;;5.00;;
27925;SDS011;15267;47.838;12.128;2022-11-23T15:28:42;7.75;;;4.80;;
27925;SDS011;15267;47.838;12.128;2022-11-23T15:31:15;6.28;;;4.97;;
27925;SDS011;15267;47.838;12.128;2022-11-23T15:33:44;7.57;;;5.15;;
27925;SDS011;15267;47.838;12.128;2022-11-23T15:36:10;6.43;;;4.63;;
27925;SDS011;15267;47.838;12.128;2022-11-23T15:38:36;7.55;;;5.60;;
27925;SDS011;15267;47.838;12.128;2022-11-23T15:41:02;6.78;;;5.20;;
27925;SDS011;15267;47.838;12.128;2022-11-23T15:43:29;5.93;;;4.50;;
27925;SDS011;15267;47.838;12.128;2022-11-23T15:46:04;6.78;;;4.80;;
27925;SDS011;15267;47.838;12.128;2022-11-23T15:48:38;7.15;;;5.35;;
27925;SDS011;15267;47.838;12.128;2022-11-23T15:51:05;6.68;;;5.40;;
27925;SDS011;15267;47.838;12.128;2022-11-23T15:53:42;6.22;;;5.05;;
27925;SDS011;15267;47.838;12.128;2022-11-23T15:56:10;8.15;;;5.53;;
27925;SDS011;15267;47.838;12.128;2022-11-23T15:58:40;7.82;;;6.32;;
27925;SDS011;15267;47.838;12.128;2022-11-23T16:01:11;7.07;;;5.85;;
27925;SDS011;15267;47.838;12.128;2022-11-23T16:03:46;7.95;;;5.90;;
27925;SDS011;15267;47.838;12.128;2022-11-23T16:06:17;6.85;;;5.72;;
27925;SDS011;15267;47.838;12.128;2022-11-23T16:08:43;9.85;;;6.38;;
27925;SDS011;15267;47.838;12.128;2022-11-23T16:11:30;9.75;;;5.43;;